This is the latest recevied weather packets stored in our database for station/object K1ADM. If no packets are shown the sender has not sent any weather packets the latest 10 day(s).
| Time | Temp. | Humidity | Pressure | Rain* | Wind** | Luminosity | Snow |
|---|---|---|---|---|---|---|---|
| 1777232701 | 19.44° C | 39% | 1018.2 hPa | 0 mm | - | - | - |
| 1777232402 | 20° C | 39% | 1018.2 hPa | 0 mm | - | - | - |
| 1777229702 | 20.56° C | 38% | 1018.3 hPa | 0 mm | - | - | - |
| 1777226401 | 17.78° C | 40% | 1018.6 hPa | 0 mm | - | - | - |
| 1777222802 | 18.33° C | 39% | 1019 hPa | 0 mm | - | - | - |
| 1777219202 | 16.67° C | 43% | 1019.3 hPa | 0 mm | - | - | - |
| 1777216202 | 16.67° C | 43% | 1019.3 hPa | 0 mm | - | - | - |
| 1777215002 | 16.11° C | 45% | 1019.3 hPa | 0 mm | - | - | - |
| 1777214402 | 15° C | 49% | 1019.3 hPa | 0 mm | - | - | - |
| 1777212002 | 14.44° C | 52% | 1019.4 hPa | 0 mm | - | - | - |
| 1777211402 | 14.44° C | 51% | 1019.4 hPa | 0 mm | - | - | - |
| 1777208402 | 12.78° C | 53% | 1019.1 hPa | 0 mm | - | - | - |
| 1777205103 | 10° C | 63% | 1018.8 hPa | 0 mm | - | - | - |
| 1777199702 | 4.44° C | 80% | 1017.7 hPa | 0 mm | - | - | - |
| 1777197302 | 3.89° C | 82% | 1017.5 hPa | 0 mm | - | - | - |
| 1777197003 | 3.89° C | 82% | 1017.5 hPa | 0 mm | - | - | - |
| 1777192803 | 4.44° C | 77% | 1017.2 hPa | 0 mm | - | - | - |
| 1777192502 | 4.44° C | 77% | 1017.3 hPa | 0 mm | - | - | - |
| 1777190703 | 4.44° C | 76% | 1017 hPa | 0 mm | - | - | - |
| 1777190403 | 5° C | 73% | 1016.9 hPa | 0 mm | - | - | - |
| 1777187103 | 5° C | 74% | 1016.6 hPa | 0 mm | - | - | - |
| 1777182903 | 6.67° C | 67% | 1016.7 hPa | 0 mm | - | - | - |
| 1777182302 | 6.11° C | 67% | 1016.7 hPa | 0 mm | - | - | - |
| 1777181103 | 6.11° C | 67% | 1016.8 hPa | 0 mm | - | - | - |
| 1777177503 | 6.67° C | 65% | 1016.7 hPa | 0 mm | - | - | - |
* Rain latest hour (hover to see other rain measurements)
** Current wind speed in m/s (hover to see current wind gust speed)